Main page
METAR-TAF:

METAR-TAF

Airports :

RAF Northolt

Northolt, England

latitude: 51-33N, longitude: 000-25W, elevation: 38 m

Current weather observation

The report was made 1 hour and 13 minutes ago, at 19:50 UTC
Wind 3 kt from the North/Northwest
Temperature 6°C
Humidity 75%
Pressure 1037 hPa
Visibility 10 km or more

METAR: EGWU 221950Z AUTO 33003KT 9999 OVC018/// 06/02 Q1037

Time: 21:03 (21:03 UTC)

Forecast

The report was made 4 hours and 29 minutes ago, at 16:34 UTC
Forecast valid from 22 at 18 UTC to 23 at 12 UTC
Wind 5 kt from the West/Northwest
Visibility 10 km or more
Broken clouds at a height of 2000 ft
Probability 30% :
Temporary
from 22 at 18 UTC to 23 at 12 UTC
Broken clouds at a height of 1300 ft

TAF: EGWU 221634Z 2218/2312 30005KT 9999 BKN020 PROB30 TEMPO 2218/2312 BKN013

Weather observations and forecasts of more than 4000 airports (METAR and TAF reports).

The available stations are represented by yellow and red dots on the map.

Hover mouse over dot to see the name of the station.

Then click to see weather observations and forecasts.

To change the map : click on the green buttons with a black cross to zoom in, on the green button with a dash to zoom out, or on the green arrows for adjacent maps.


METAR-TAF: